Terminal Aerodrome Forecast
Issued by NWS

Home | Current Version | Previous Version | Text Only | Print | Product List | Glossary On
Versions: 1 2 3 4 5 6 7 8 9 10 11 12
000
FTUS45 KVEF 302300
TAFHND
TAF
KHND 302320Z 3100/3124 21012KT P6SM SCT160 BKN250
     FM310500 19010KT P6SM FEW250
     FM311800 04006KT P6SM FEW250=

USA.gov is the U.S. government's official web portal to all federal, state and local government web resources and services.